Time;durP1;ratioP1;P1;durP2;ratioP2;P2;SDS_P1;SDS_P2;PMS_P1;PMS_P2;Temp;Humidity;BMP_temperature;BMP_pressure;BME280_temperature;BME280_humidity;BME280_pressure;Samples;Min_cycle;Max_cycle;Signal;HPM_P1;HPM_P2
2021/06/13 00:01:37;;;;;;;11.45;4.97;;;17.90;51.50;;;;;;4935369;29;20043;-88
2021/06/13 00:04:03;;;;;;;9.45;4.93;;;17.90;51.60;;;;;;4936763;29;20484;-87
2021/06/13 00:06:29;;;;;;;9.43;4.47;;;17.80;51.60;;;;;;4919173;29;20034;-88
2021/06/13 00:08:54;;;;;;;9.07;4.28;;;17.80;51.70;;;;;;4919806;29;20019;-88
2021/06/13 00:11:21;;;;;;;9.60;4.25;;;17.80;51.80;;;;;;4936487;29;20472;-88
2021/06/13 00:13:47;;;;;;;7.72;3.53;;;17.70;51.80;;;;;;4936446;29;20024;-87
2021/06/13 00:16:13;;;;;;;10.23;3.63;;;17.80;51.90;;;;;;4936740;29;20027;-87
2021/06/13 00:18:39;;;;;;;7.82;3.63;;;17.70;51.80;;;;;;4935771;29;20027;-87
2021/06/13 00:21:04;;;;;;;9.80;3.80;;;17.60;51.80;;;;;;4936263;29;20090;-90
2021/06/13 00:23:30;;;;;;;8.95;3.55;;;17.60;51.90;;;;;;4935227;29;20447;-87
2021/06/13 00:25:56;;;;;;;8.43;3.40;;;17.60;51.80;;;;;;4935414;29;20091;-87
2021/06/13 00:28:22;;;;;;;8.48;3.58;;;17.50;51.80;;;;;;4919197;29;20054;-88
2021/06/13 00:30:48;;;;;;;8.10;3.63;;;17.50;51.80;;;;;;4936087;29;20157;-88
2021/06/13 00:33:13;;;;;;;7.72;3.60;;;17.40;51.80;;;;;;4936181;29;20063;-86
2021/06/13 00:35:39;;;;;;;9.98;3.50;;;17.30;51.80;;;;;;4935977;29;20118;-86
2021/06/13 00:38:06;;;;;;;11.55;3.65;;;17.30;51.90;;;;;;4936233;29;20166;-87
2021/06/13 00:40:33;;;;;;;8.80;3.45;;;17.20;51.90;;;;;;4935826;29;20538;-87
2021/06/13 00:42:59;;;;;;;8.88;3.40;;;17.20;52.00;;;;;;4950896;29;20023;-88
2021/06/13 00:45:25;;;;;;;8.40;3.38;;;17.10;52.00;;;;;;4935490;29;20424;-89
2021/06/13 00:47:51;;;;;;;8.52;3.25;;;17.10;52.00;;;;;;4935892;29;20575;-88
2021/06/13 00:50:38;;;;;;;6.50;2.88;;;17.10;52.10;;;;;;4919569;29;20039;-88
2021/06/13 00:53:06;;;;;;;7.10;3.10;;;17.00;52.10;;;;;;4917034;29;20020;-89
2021/06/13 00:55:32;;;;;;;7.40;3.10;;;17.00;52.10;;;;;;4935875;29;20518;-89
2021/06/13 00:58:00;;;;;;;7.90;3.20;;;17.00;52.10;;;;;;4919013;29;20175;-88
2021/06/13 01:00:27;;;;;;;7.82;3.03;;;16.90;52.10;;;;;;4918591;29;20055;-88
2021/06/13 01:02:52;;;;;;;8.18;3.00;;;16.90;52.10;;;;;;4935708;29;20024;-89
2021/06/13 01:05:18;;;;;;;8.48;2.80;;;16.80;52.10;;;;;;4935200;29;20078;-88
2021/06/13 01:07:50;;;;;;;8.50;3.50;;;16.80;52.10;;;;;;4935666;29;20031;-87
2021/06/13 01:10:54;;;;;;;7.72;2.78;;;16.80;52.20;;;;;;4935458;29;20034;-87
2021/06/13 01:13:39;;;;;;;9.13;2.95;;;16.70;52.20;;;;;;4930546;29;20043;-88
2021/06/13 01:16:17;;;;;;;7.18;3.05;;;16.60;52.20;;;;;;4935983;29;20051;-87
2021/06/13 01:18:50;;;;;;;7.00;2.97;;;16.60;52.30;;;;;;4932367;29;20028;-87
2021/06/13 01:21:21;;;;;;;6.90;3.17;;;16.50;52.30;;;;;;4935037;29;20063;-87
2021/06/13 01:24:00;;;;;;;7.53;3.20;;;16.50;52.30;;;;;;4914422;29;20495;-89
2021/06/13 01:26:47;;;;;;;7.75;3.40;;;16.50;52.40;;;;;;4935154;29;20023;-88
2021/06/13 01:29:22;;;;;;;7.93;3.30;;;16.40;52.40;;;;;;4933865;29;20038;-88
2021/06/13 01:31:55;;;;;;;9.50;3.20;;;16.40;52.40;;;;;;4917705;29;20480;-88
2021/06/13 01:34:33;;;;;;;8.70;3.50;;;16.30;52.40;;;;;;4933710;29;20028;-88
2021/06/13 01:37:03;;;;;;;7.57;3.50;;;16.30;52.50;;;;;;4934350;29;20027;-89
2021/06/13 01:39:31;;;;;;;6.78;3.13;;;16.20;52.50;;;;;;4935031;29;20159;-88
2021/06/13 01:41:59;;;;;;;8.63;3.28;;;16.20;52.50;;;;;;4935094;29;20035;-87
2021/06/13 01:44:26;;;;;;;7.05;3.45;;;16.20;52.50;;;;;;4933401;29;20135;-85
2021/06/13 01:46:54;;;;;;;8.30;3.60;;;16.10;52.50;;;;;;4934935;29;20515;-86
2021/06/13 01:49:21;;;;;;;9.30;3.30;;;16.10;52.50;;;;;;4931163;29;20023;-86
2021/06/13 01:51:48;;;;;;;7.18;3.17;;;16.00;52.70;;;;;;4936135;29;20135;-86
2021/06/13 01:54:16;;;;;;;9.95;3.58;;;16.00;52.80;;;;;;4917576;29;20028;-87
2021/06/13 01:56:50;;;;;;;8.15;3.33;;;15.90;52.70;;;;;;4934690;29;20046;-87
2021/06/13 01:59:18;;;;;;;8.70;3.60;;;15.90;53.40;;;;;;4934826;29;20368;-87
2021/06/13 02:01:45;;;;;;;6.55;3.30;;;15.80;52.70;;;;;;4915554;29;20056;-86
2021/06/13 02:04:13;;;;;;;9.07;4.05;;;15.70;52.80;;;;;;4934850;29;20380;-87
2021/06/13 02:06:44;;;;;;;17.38;3.88;;;15.80;52.90;;;;;;4917293;29;20032;-86
2021/06/13 02:09:11;;;;;;;9.15;3.63;;;15.60;52.90;;;;;;4934897;29;20107;-90
2021/06/13 02:11:42;;;;;;;7.03;3.15;;;15.50;52.80;;;;;;4917807;29;20503;-88
2021/06/13 02:14:09;;;;;;;8.77;3.75;;;15.50;53.00;;;;;;4917836;29;20051;-88
2021/06/13 02:16:41;;;;;;;8.63;3.63;;;15.40;53.00;;;;;;4917417;29;20032;-89
2021/06/13 02:19:08;;;;;;;8.13;3.50;;;15.40;53.10;;;;;;4934690;29;20391;-89
2021/06/13 02:21:34;;;;;;;8.18;3.42;;;15.30;53.00;;;;;;4917615;29;20024;-89
2021/06/13 02:24:00;;;;;;;7.72;3.60;;;15.20;53.20;;;;;;4934850;29;20038;-89
2021/06/13 02:26:27;;;;;;;9.13;3.67;;;15.10;53.20;;;;;;4934667;29;20020;-89
2021/06/13 02:28:56;;;;;;;7.47;3.70;;;15.10;53.30;;;;;;4934699;29;20075;-89
2021/06/13 02:31:28;;;;;;;8.43;3.58;;;15.00;53.40;;;;;;4933385;29;20055;-89
2021/06/13 02:33:55;;;;;;;7.80;3.60;;;15.00;53.60;;;;;;4931380;29;20020;-90
2021/06/13 02:36:22;;;;;;;8.57;3.90;;;14.90;53.50;;;;;;4933289;29;20032;-89
2021/06/13 02:38:50;;;;;;;10.68;4.00;;;14.90;53.70;;;;;;4917679;29;20031;-89
2021/06/13 02:41:16;;;;;;;13.75;3.88;;;14.80;53.70;;;;;;4934347;29;20024;-89
2021/06/13 02:43:43;;;;;;;8.18;3.80;;;14.80;53.70;;;;;;4917708;29;20058;-89
2021/06/13 02:46:09;;;;;;;9.25;3.90;;;14.70;53.70;;;;;;4934379;29;20023;-89
2021/06/13 02:48:34;;;;;;;9.30;3.85;;;14.60;53.70;;;;;;4919176;29;20035;-89
2021/06/13 02:51:00;;;;;;;9.77;4.50;;;14.50;53.80;;;;;;4918279;29;20151;-89
2021/06/13 02:53:43;;;;;;;9.50;4.03;;;14.50;54.00;;;;;;4937990;29;20103;-88
2021/06/13 02:56:17;;;;;;;9.43;4.35;;;14.40;54.20;;;;;;4933928;29;20078;-88
2021/06/13 02:59:03;;;;;;;10.18;4.40;;;14.40;54.30;;;;;;4936696;29;20387;-88
2021/06/13 03:01:30;;;;;;;8.35;4.00;;;14.30;54.40;;;;;;4935282;29;20044;-88
2021/06/13 03:03:58;;;;;;;9.70;4.40;;;14.30;54.40;;;;;;4937564;29;20016;-87
2021/06/13 03:06:24;;;;;;;8.38;4.32;;;14.20;54.40;;;;;;4937644;29;20046;-87
2021/06/13 03:08:51;;;;;;;9.32;3.92;;;14.20;54.50;;;;;;4937487;29;20067;-88
2021/06/13 03:11:19;;;;;;;9.25;4.32;;;14.10;54.50;;;;;;4916652;29;20035;-88
2021/06/13 03:13:47;;;;;;;11.35;4.47;;;14.10;54.80;;;;;;4937057;29;20035;-88
2021/06/13 03:16:14;;;;;;;8.85;4.47;;;14.00;54.80;;;;;;4920797;29;20028;-90
2021/06/13 03:18:43;;;;;;;9.50;4.57;;;13.90;54.90;;;;;;4920790;29;20028;-89
2021/06/13 03:21:11;;;;;;;8.32;4.15;;;13.90;55.00;;;;;;4937544;29;20031;-89
2021/06/13 03:23:37;;;;;;;8.82;4.57;;;13.90;55.00;;;;;;4920842;29;20118;-90
2021/06/13 03:26:04;;;;;;;9.60;4.50;;;13.90;55.20;;;;;;4936998;29;20091;-89
2021/06/13 03:28:32;;;;;;;11.00;4.28;;;13.90;55.40;;;;;;4920518;29;20043;-87
2021/06/13 03:30:59;;;;;;;8.38;3.65;;;13.90;55.70;;;;;;4956581;28;20016;-88
2021/06/13 03:33:28;;;;;;;9.95;3.55;;;14.00;55.80;;;;;;4920234;29;20057;-88
2021/06/13 03:35:56;;;;;;;7.72;3.55;;;14.00;55.70;;;;;;4932817;29;20028;-88
2021/06/13 03:38:22;;;;;;;7.97;3.83;;;14.00;55.70;;;;;;4920031;29;20176;-89
2021/06/13 03:40:49;;;;;;;11.00;4.10;;;14.00;55.70;;;;;;4920653;29;20027;-89
2021/06/13 03:43:17;;;;;;;8.93;3.92;;;14.00;56.40;;;;;;4937378;29;20093;-89
2021/06/13 03:45:43;;;;;;;7.90;4.00;;;14.00;55.90;;;;;;4937304;29;20031;-88
2021/06/13 03:48:11;;;;;;;8.40;3.95;;;14.00;56.00;;;;;;4937184;29;20050;-88
2021/06/13 03:50:37;;;;;;;8.68;3.85;;;14.00;56.10;;;;;;4936796;29;20020;-88
2021/06/13 03:53:02;;;;;;;12.70;4.38;;;13.90;56.10;;;;;;4936169;29;20032;-88
2021/06/13 03:55:29;;;;;;;8.70;4.50;;;14.00;56.20;;;;;;4937011;29;20357;-89
2021/06/13 03:57:57;;;;;;;9.13;4.05;;;14.00;56.30;;;;;;4951563;28;20027;-88
2021/06/13 04:00:25;;;;;;;10.93;4.45;;;14.00;56.90;;;;;;4918868;29;20435;-88
2021/06/13 04:02:51;;;;;;;9.75;4.15;;;14.00;56.40;;;;;;4936769;29;20028;-88
2021/06/13 04:05:19;;;;;;;9.60;4.38;;;14.10;56.50;;;;;;4936687;29;20073;-88
2021/06/13 04:07:45;;;;;;;10.77;4.30;;;14.10;56.60;;;;;;4936534;29;20023;-89
2021/06/13 04:10:13;;;;;;;8.35;4.20;;;14.10;56.60;;;;;;4936388;29;20027;-89
2021/06/13 04:12:40;;;;;;;10.35;4.70;;;14.20;56.80;;;;;;4936294;29;20031;-87
2021/06/13 04:15:08;;;;;;;13.77;4.97;;;14.20;56.80;;;;;;4936374;29;20019;-87
2021/06/13 04:17:34;;;;;;;10.27;5.20;;;14.20;56.80;;;;;;4936297;29;20027;-87
2021/06/13 04:20:02;;;;;;;7.97;4.38;;;14.20;56.80;;;;;;4935991;29;20026;-87
2021/06/13 04:22:30;;;;;;;8.07;4.15;;;14.30;56.90;;;;;;4932008;29;20055;-87
2021/06/13 04:24:57;;;;;;;10.80;4.88;;;14.30;56.90;;;;;;4936138;29;20023;-87
2021/06/13 04:27:25;;;;;;;7.85;4.00;;;14.30;57.00;;;;;;4919446;29;20481;-88
2021/06/13 04:29:51;;;;;;;9.13;4.68;;;14.30;57.00;;;;;;4919865;29;20123;-89
2021/06/13 04:32:18;;;;;;;9.13;3.97;;;14.40;57.20;;;;;;4937049;29;20155;-89
2021/06/13 04:34:44;;;;;;;10.18;4.53;;;14.40;57.20;;;;;;4931431;29;20020;-90
2021/06/13 04:37:10;;;;;;;8.73;3.85;;;14.50;57.30;;;;;;4919069;29;20396;-90
2021/06/13 04:39:37;;;;;;;9.15;3.92;;;14.50;57.50;;;;;;4936361;29;20020;-89
2021/06/13 04:42:06;;;;;;;7.65;3.88;;;14.60;57.70;;;;;;4936135;29;20027;-90
2021/06/13 04:44:32;;;;;;;9.43;3.50;;;14.70;57.80;;;;;;4919116;29;20063;-89
2021/06/13 04:46:58;;;;;;;8.88;3.13;;;14.80;57.70;;;;;;4919466;29;20099;-90
2021/06/13 04:49:24;;;;;;;7.95;3.33;;;14.90;57.70;;;;;;4919079;29;20127;-90
2021/06/13 04:51:53;;;;;;;7.30;2.92;;;15.00;57.70;;;;;;4934932;29;20059;-88
2021/06/13 04:54:55;;;;;;;16.48;9.32;;;15.10;57.70;;;;;;4935557;29;20027;-88
2021/06/13 04:57:26;;;;;;;6.35;2.88;;;15.10;57.70;;;;;;4917725;29;20105;-89
2021/06/13 04:59:52;;;;;;;8.48;3.63;;;15.20;57.50;;;;;;4919246;29;20031;-89
2021/06/13 05:02:17;;;;;;;7.97;3.00;;;15.20;57.50;;;;;;4934748;29;20039;-89
2021/06/13 05:04:43;;;;;;;9.05;2.80;;;15.20;57.40;;;;;;4919339;29;20024;-89
2021/06/13 05:07:09;;;;;;;10.10;3.00;;;15.20;57.40;;;;;;4919328;29;20428;-90
2021/06/13 05:09:35;;;;;;;6.75;2.80;;;15.30;57.50;;;;;;4950963;28;20491;-90
2021/06/13 05:12:00;;;;;;;10.55;2.90;;;15.30;57.50;;;;;;4918631;29;20480;-89
2021/06/13 05:14:26;;;;;;;10.30;2.80;;;15.30;57.60;;;;;;4918660;29;20071;-88
2021/06/13 05:16:52;;;;;;;8.27;2.72;;;15.40;57.60;;;;;;4934346;29;20079;-89
2021/06/13 05:19:17;;;;;;;6.72;2.88;;;15.40;57.60;;;;;;4918820;29;20024;-88
2021/06/13 05:21:43;;;;;;;7.88;3.60;;;15.50;57.40;;;;;;4934972;29;20058;-88
2021/06/13 05:24:10;;;;;;;6.80;2.88;;;15.50;57.40;;;;;;4934589;29;20472;-89
2021/06/13 05:26:37;;;;;;;8.43;2.80;;;15.50;57.30;;;;;;4918311;29;20024;-89
2021/06/13 05:29:03;;;;;;;7.00;2.95;;;15.50;57.40;;;;;;4918337;29;20031;-89
2021/06/13 05:31:28;;;;;;;9.43;3.25;;;15.50;57.40;;;;;;4918397;29;20016;-85
2021/06/13 05:33:54;;;;;;;7.18;2.90;;;15.50;57.50;;;;;;4935556;29;20036;-84
2021/06/13 05:36:20;;;;;;;6.35;2.60;;;15.50;57.40;;;;;;4949650;28;20075;-85
2021/06/13 05:38:46;;;;;;;8.45;2.95;;;15.50;57.40;;;;;;4934879;29;20030;-87
2021/06/13 05:41:12;;;;;;;6.38;2.80;;;15.60;58.00;;;;;;4918323;29;20043;-85
2021/06/13 05:43:39;;;;;;;10.10;4.78;;;15.60;57.50;;;;;;4934926;29;20103;-83
2021/06/13 05:46:05;;;;;;;9.30;3.33;;;15.60;57.50;;;;;;4935186;29;20039;-84
2021/06/13 05:48:32;;;;;;;7.45;2.90;;;15.60;57.50;;;;;;4935054;29;20028;-85
2021/06/13 05:50:58;;;;;;;8.90;2.90;;;15.60;57.50;;;;;;4935128;29;20075;-83
2021/06/13 05:53:23;;;;;;;10.90;3.10;;;15.60;57.60;;;;;;4934031;29;20055;-84
2021/06/13 05:55:49;;;;;;;14.15;3.28;;;15.70;57.60;;;;;;4934588;29;20039;-84
2021/06/13 05:58:15;;;;;;;7.15;3.00;;;15.70;57.60;;;;;;4934845;29;20093;-84
2021/06/13 06:00:40;;;;;;;7.47;2.88;;;15.70;57.60;;;;;;4917678;29;20028;-86
2021/06/13 06:03:07;;;;;;;6.97;2.80;;;15.70;57.70;;;;;;4935155;29;20436;-83
2021/06/13 06:05:33;;;;;;;6.18;2.70;;;15.80;57.70;;;;;;4935145;29;20492;-83
2021/06/13 06:08:00;;;;;;;8.00;2.70;;;15.80;57.70;;;;;;4917928;29;20395;-83
2021/06/13 06:10:27;;;;;;;8.35;2.60;;;15.70;57.70;;;;;;4935270;29;20079;-83
2021/06/13 06:12:54;;;;;;;7.50;2.72;;;15.80;57.80;;;;;;4934802;29;20058;-83
2021/06/13 06:15:22;;;;;;;7.25;2.50;;;15.90;57.70;;;;;;4918362;29;20023;-85
2021/06/13 06:17:49;;;;;;;6.60;2.50;;;15.90;57.70;;;;;;4917765;29;20122;-86
2021/06/13 06:20:17;;;;;;;6.35;2.70;;;16.00;58.00;;;;;;4923693;29;20031;-85
2021/06/13 06:22:43;;;;;;;8.75;2.80;;;16.10;58.00;;;;;;4920197;29;20063;-83
2021/06/13 06:25:10;;;;;;;6.57;2.58;;;16.10;57.80;;;;;;4937549;29;20032;-82
2021/06/13 06:27:36;;;;;;;6.57;2.70;;;16.10;57.70;;;;;;4943382;29;20035;-82
2021/06/13 06:30:02;;;;;;;5.50;2.63;;;16.20;57.60;;;;;;4938755;29;20020;-83
2021/06/13 06:32:28;;;;;;;8.32;2.88;;;16.20;57.70;;;;;;4938781;29;20016;-84
2021/06/13 06:34:53;;;;;;;6.47;2.80;;;16.30;57.80;;;;;;4921328;29;20443;-83
2021/06/13 06:37:19;;;;;;;8.48;2.70;;;16.30;57.70;;;;;;4938760;29;20439;-83
2021/06/13 06:39:45;;;;;;;5.53;2.50;;;16.40;57.60;;;;;;4938213;29;20136;-83
2021/06/13 06:42:10;;;;;;;5.90;2.50;;;16.40;57.50;;;;;;4938344;29;20056;-83
2021/06/13 06:44:36;;;;;;;7.78;2.85;;;16.40;57.70;;;;;;4938554;29;20032;-83
2021/06/13 06:47:02;;;;;;;8.88;2.90;;;16.50;57.80;;;;;;4938956;29;20042;-83
2021/06/13 06:49:32;;;;;;;7.30;3.05;;;16.50;57.60;;;;;;4937729;29;20024;-83
2021/06/13 06:51:58;;;;;;;6.97;3.13;;;16.60;57.60;;;;;;4940467;29;20039;-83
2021/06/13 06:54:24;;;;;;;8.63;2.83;;;16.60;57.40;;;;;;4937761;29;20051;-83
2021/06/13 06:56:50;;;;;;;8.85;3.17;;;16.60;57.50;;;;;;4939669;29;20032;-85
2021/06/13 06:59:16;;;;;;;7.40;2.78;;;16.60;57.50;;;;;;4936052;29;20082;-83
2021/06/13 07:01:41;;;;;;;5.95;2.67;;;16.70;57.40;;;;;;4936865;29;20063;-83
2021/06/13 07:04:07;;;;;;;6.25;2.40;;;16.70;57.40;;;;;;4920578;29;20026;-83
2021/06/13 07:06:33;;;;;;;6.35;2.55;;;16.70;57.30;;;;;;4937494;29;20032;-83
2021/06/13 07:08:58;;;;;;;6.55;2.50;;;16.80;57.60;;;;;;4937267;29;20507;-83
2021/06/13 07:11:24;;;;;;;5.72;2.50;;;16.90;57.70;;;;;;4937627;29;20047;-83
2021/06/13 07:13:50;;;;;;;6.82;2.90;;;17.00;57.60;;;;;;4937450;29;20095;-83
2021/06/13 07:16:16;;;;;;;6.68;2.83;;;17.10;57.40;;;;;;4937131;29;20119;-84
2021/06/13 07:18:41;;;;;;;8.60;2.70;;;17.00;57.20;;;;;;4921924;29;20505;-84
2021/06/13 07:21:07;;;;;;;5.75;2.47;;;17.20;57.50;;;;;;4937203;29;20547;-83
2021/06/13 07:23:33;;;;;;;7.65;2.45;;;17.30;57.90;;;;;;4937303;29;20024;-84
2021/06/13 07:25:59;;;;;;;10.30;2.80;;;17.50;57.90;;;;;;4941267;29;20024;-84
2021/06/13 07:28:25;;;;;;;7.13;2.80;;;17.70;57.80;;;;;;4936985;29;20027;-84
2021/06/13 07:30:50;;;;;;;8.50;2.70;;;17.90;57.70;;;;;;4936149;29;20035;-84
2021/06/13 07:33:16;;;;;;;7.43;2.72;;;17.90;57.40;;;;;;4937327;29;20027;-83
2021/06/13 07:35:42;;;;;;;8.05;2.67;;;18.00;57.00;;;;;;4919199;29;20038;-83
2021/06/13 07:38:07;;;;;;;5.50;2.38;;;18.00;57.00;;;;;;4937131;29;20043;-84
2021/06/13 07:40:33;;;;;;;5.82;2.25;;;18.10;57.00;;;;;;4941351;29;20019;-84
2021/06/13 07:43:00;;;;;;;5.45;2.45;;;18.10;57.00;;;;;;4935131;29;20032;-84
2021/06/13 07:45:26;;;;;;;7.72;2.50;;;18.20;56.50;;;;;;4937350;29;20024;-85
2021/06/13 07:47:52;;;;;;;6.22;2.55;;;18.20;56.70;;;;;;4920054;29;20047;-84
2021/06/13 07:50:21;;;;;;;11.57;4.18;;;18.30;56.80;;;;;;4940115;29;20484;-84
2021/06/13 07:52:48;;;;;;;6.13;2.40;;;18.20;55.90;;;;;;4937120;29;20035;-83
2021/06/13 07:55:16;;;;;;;6.63;2.50;;;18.20;56.00;;;;;;4939843;29;20032;-83
2021/06/13 07:57:43;;;;;;;5.55;2.50;;;18.20;56.00;;;;;;4935770;29;20130;-83
2021/06/13 08:00:10;;;;;;;6.43;2.53;;;18.20;56.10;;;;;;4937037;29;20034;-82
2021/06/13 08:02:37;;;;;;;6.10;2.45;;;18.40;56.30;;;;;;4920309;29;20491;-83
2021/06/13 08:05:10;;;;;;;7.88;2.60;;;18.40;56.00;;;;;;4936520;29;20035;-84
2021/06/13 08:07:36;;;;;;;6.50;2.40;;;18.50;56.10;;;;;;4937023;29;20020;-83
2021/06/13 08:10:07;;;;;;;7.72;2.55;;;18.70;56.30;;;;;;4936859;29;20037;-83
2021/06/13 08:12:33;;;;;;;5.75;2.42;;;18.70;56.10;;;;;;4936237;29;20040;-83
2021/06/13 08:14:59;;;;;;;8.00;3.63;;;18.80;56.10;;;;;;4936831;29;20071;-84
2021/06/13 08:17:25;;;;;;;5.20;2.20;;;19.00;56.00;;;;;;4936023;29;20083;-84
2021/06/13 08:19:51;;;;;;;7.93;2.35;;;18.90;55.40;;;;;;4936778;29;20365;-84
2021/06/13 08:22:17;;;;;;;7.03;2.53;;;18.80;55.10;;;;;;4936862;29;20034;-84
2021/06/13 08:24:42;;;;;;;8.00;2.95;;;18.80;55.00;;;;;;4919518;29;20388;-82
2021/06/13 08:27:08;;;;;;;9.27;2.45;;;18.70;55.00;;;;;;4936215;29;20079;-85
2021/06/13 08:29:34;;;;;;;6.13;2.50;;;18.70;55.70;;;;;;4936080;29;20031;-85
2021/06/13 08:32:00;;;;;;;6.97;2.53;;;18.80;55.10;;;;;;4940898;29;20093;-84
2021/06/13 08:34:26;;;;;;;7.10;2.45;;;18.80;54.90;;;;;;4936544;29;20539;-84
2021/06/13 08:36:55;;;;;;;10.05;2.33;;;18.80;54.90;;;;;;4919555;29;20066;-86
2021/06/13 08:39:21;;;;;;;5.95;2.28;;;18.80;54.90;;;;;;4919461;29;20523;-84
2021/06/13 08:41:47;;;;;;;7.68;2.40;;;18.80;54.70;;;;;;4935415;29;20032;-85
2021/06/13 08:44:22;;;;;;;4.60;2.10;;;18.90;54.80;;;;;;4951120;29;20024;-86
2021/06/13 08:46:47;;;;;;;8.23;3.22;;;18.80;54.60;;;;;;4950723;28;20039;-83
2021/06/13 08:49:13;;;;;;;7.97;2.80;;;18.80;54.30;;;;;;4935019;29;20523;-84
2021/06/13 08:51:39;;;;;;;6.07;2.33;;;18.80;54.60;;;;;;4925126;29;20063;-82
2021/06/13 08:54:05;;;;;;;8.27;2.63;;;18.80;54.40;;;;;;4939791;29;20502;-84
2021/06/13 08:56:30;;;;;;;7.20;2.45;;;18.90;54.40;;;;;;4934169;29;20036;-87
2021/06/13 08:58:56;;;;;;;6.00;2.28;;;19.00;54.30;;;;;;4935113;29;20468;-88
2021/06/13 09:01:22;;;;;;;6.50;2.50;;;19.00;54.50;;;;;;4917131;29;20079;-93
2021/06/13 09:03:47;;;;;;;7.03;2.47;;;19.00;54.00;;;;;;4919728;29;20062;-93
2021/06/13 09:06:13;;;;;;;9.90;2.35;;;19.10;53.90;;;;;;4936601;29;20024;-87
2021/06/13 09:08:41;;;;;;;8.57;2.60;;;19.00;54.10;;;;;;4936784;29;20452;-86
2021/06/13 09:11:08;;;;;;;8.90;2.72;;;19.20;54.60;;;;;;4936016;29;20024;-87
2021/06/13 09:13:37;;;;;;;8.43;2.85;;;19.30;54.40;;;;;;4935484;29;20082;-88
2021/06/13 09:16:08;;;;;;;7.22;2.45;;;19.40;54.20;;;;;;4942607;29;20046;-88
2021/06/13 09:18:37;;;;;;;9.32;2.75;;;19.50;53.80;;;;;;4929492;29;20020;-88
2021/06/13 09:21:06;;;;;;;6.15;2.47;;;19.50;53.80;;;;;;4936137;29;20074;-87
2021/06/13 09:23:34;;;;;;;4.97;2.30;;;19.60;53.80;;;;;;4934825;29;20019;-88
2021/06/13 09:26:09;;;;;;;5.80;2.30;;;19.70;53.60;;;;;;4934966;29;20032;-86
2021/06/13 09:28:40;;;;;;;8.00;2.30;;;19.80;53.20;;;;;;4934885;29;20543;-86
2021/06/13 09:31:31;;;;;;;7.03;2.50;;;19.80;53.40;;;;;;4940932;29;20028;-86
2021/06/13 09:34:17;;;;;;;4.03;2.03;;;19.90;53.30;;;;;;4933461;29;20032;-87
2021/06/13 09:39:30;;;;;;;11.18;2.85;;;20.10;53.40;;;;;;4936803;29;20071;-85
2021/06/13 09:42:04;;;;;;;6.90;2.40;;;20.10;53.50;;;;;;4937783;29;20032;-87
2021/06/13 09:44:40;;;;;;;9.20;2.20;;;20.20;53.00;;;;;;4925893;29;20567;-86
2021/06/13 09:47:13;;;;;;;6.85;2.08;;;20.30;53.00;;;;;;4928863;29;20038;-86
2021/06/13 09:49:47;;;;;;;8.38;2.50;;;20.30;52.80;;;;;;4935578;29;20079;-86
2021/06/13 09:52:13;;;;;;;8.30;2.83;;;20.50;52.90;;;;;;4918715;29;20032;-86
2021/06/13 09:54:38;;;;;;;6.85;2.22;;;20.50;52.90;;;;;;4918279;29;20032;-86
2021/06/13 09:57:06;;;;;;;6.80;2.08;;;20.80;53.00;;;;;;4935170;29;20127;-86
2021/06/13 09:59:34;;;;;;;6.80;2.40;;;20.80;52.40;;;;;;4921875;29;20016;-87
2021/06/13 10:02:03;;;;;;;8.43;2.70;;;20.90;52.40;;;;;;4929131;29;20048;-87
2021/06/13 10:04:33;;;;;;;7.53;2.30;;;21.00;52.10;;;;;;4922683;29;20082;-86
2021/06/13 10:07:20;;;;;;;6.28;2.20;;;21.10;51.80;;;;;;4922018;29;20046;-85
2021/06/13 10:09:56;;;;;;;6.85;2.53;;;21.00;51.40;;;;;;4921513;29;20028;-85
2021/06/13 10:13:37;;;;;;;5.38;2.30;;;21.20;52.10;;;;;;4921531;29;20042;-88
2021/06/13 10:16:03;;;;;;;7.25;2.50;;;21.30;51.60;;;;;;4913268;29;20048;-87
2021/06/13 10:18:30;;;;;;;6.65;2.28;;;21.50;51.70;;;;;;4925079;29;20137;-86
2021/06/13 10:21:10;;;;;;;5.00;2.22;;;21.60;51.50;;;;;;4905796;29;20499;-86
2021/06/13 10:23:45;;;;;;;2.60;1.80;;;21.80;51.60;;;;;;4943291;29;20031;-88
2021/06/13 10:27:14;;;;;;;4.43;2.00;;;21.80;50.90;;;;;;4939117;29;20020;-86
2021/06/13 10:29:49;;;;;;;7.05;2.75;;;21.70;50.80;;;;;;4930597;29;20040;-86
2021/06/13 10:32:17;;;;;;;7.65;2.60;;;21.80;51.30;;;;;;4917403;29;20024;-87
2021/06/13 10:34:43;;;;;;;5.30;2.20;;;22.10;51.40;;;;;;4938864;29;20031;-87
2021/06/13 10:38:38;;;;;;;4.05;1.95;;;22.20;50.80;;;;;;4925906;29;20050;-85
2021/06/13 10:40:49;;;;;;;10.18;4.35;;;22.30;50.60;;;;;;4937804;29;20089;-86
2021/06/13 10:47:16;;;;;;;5.85;1.88;;;22.70;50.70;;;;;;4935654;29;20468;-87
2021/06/13 10:49:50;;;;;;;11.10;5.20;;;22.80;50.20;;;;;;4921197;29;20059;-87
2021/06/13 10:52:27;;;;;;;7.15;2.40;;;22.80;50.20;;;;;;4938935;29;20031;-86
2021/06/13 10:55:48;;;;;;;4.60;2.00;;;22.90;50.10;;;;;;4922370;29;20042;-88
2021/06/13 10:59:05;;;;;;;7.60;2.40;;;23.20;50.30;;;;;;4904801;29;20048;-88
2021/06/13 11:04:54;;;;;;;5.90;2.10;;;23.50;49.90;;;;;;4937323;29;20028;-87
2021/06/13 11:08:02;;;;;;;4.78;2.17;;;23.60;49.90;;;;;;4917246;29;20062;-87
2021/06/13 11:10:26;;;;;;;4.82;1.90;;;23.60;49.50;;;;;;4929188;29;20031;-87
2021/06/13 11:13:09;;;;;;;7.80;2.08;;;23.80;50.00;;;;;;4920351;29;20063;-87
2021/06/13 11:15:41;;;;;;;4.05;1.98;;;24.10;50.20;;;;;;4936550;29;20110;-87
2021/06/13 11:18:29;;;;;;;5.22;2.10;;;24.40;49.90;;;;;;4937691;29;20036;-87
2021/06/13 11:21:16;;;;;;;7.80;2.40;;;24.90;50.90;;;;;;4933992;29;20028;-86
2021/06/13 11:24:20;;;;;;;4.28;2.10;;;25.50;51.60;;;;;;4933525;29;20494;-86
2021/06/13 11:27:16;;;;;;;4.82;2.13;;;26.30;52.00;;;;;;4918047;29;20038;-86
2021/06/13 11:30:42;;;;;;;4.05;1.75;;;27.10;53.50;;;;;;4932554;29;20028;-86
2021/06/13 11:43:21;;;;;;;3.83;2.03;;;30.70;52.80;;;;;;4937397;29;20039;-85
2021/06/13 11:46:10;;;;;;;4.40;1.83;;;31.50;52.30;;;;;;4903830;29;20031;-85
2021/06/13 11:49:44;;;;;;;4.22;1.85;;;32.00;50.90;;;;;;4920261;29;20028;-86
2021/06/13 11:52:10;;;;;;;8.90;2.30;;;32.30;50.80;;;;;;4886153;29;20020;-85
2021/06/13 11:54:49;;;;;;;5.50;2.08;;;33.00;51.00;;;;;;4913748;29;20047;-88
2021/06/13 11:57:14;;;;;;;3.58;1.95;;;33.70;50.50;;;;;;4913276;29;20043;-85
2021/06/13 11:59:44;;;;;;;6.10;2.20;;;34.50;49.90;;;;;;4899995;29;20039;-83
2021/06/13 12:02:12;;;;;;;6.18;2.03;;;35.20;49.50;;;;;;4934637;29;20044;-82
2021/06/13 12:04:38;;;;;;;5.35;1.88;;;35.80;49.20;;;;;;4936231;29;20020;-83
2021/06/13 12:07:17;;;;;;;6.55;2.10;;;36.30;47.90;;;;;;4936560;29;20380;-83
2021/06/13 12:09:48;;;;;;;3.58;1.60;;;36.60;46.60;;;;;;4936385;29;20024;-82
2021/06/13 12:12:14;;;;;;;3.22;1.90;;;37.10;46.60;;;;;;4936666;29;20019;-82
2021/06/13 12:14:42;;;;;;;3.95;1.63;;;37.30;46.90;;;;;;4936135;29;20420;-82
2021/06/13 12:17:14;;;;;;;3.05;1.85;;;37.80;47.20;;;;;;4935899;29;20154;-83
2021/06/13 12:19:57;;;;;;;3.75;1.70;;;37.60;44.80;;;;;;4936943;29;20024;-83
2021/06/13 12:22:39;;;;;;;6.50;2.38;;;37.90;46.40;;;;;;4936048;29;20059;-83
2021/06/13 12:27:34;;;;;;;4.85;1.95;;;39.60;49.70;;;;;;4936194;29;19911;-83
2021/06/13 12:30:05;;;;;;;6.50;1.90;;;40.50;47.50;;;;;;4919627;29;20020;-83
2021/06/13 12:32:31;;;;;;;5.90;2.22;;;41.20;45.60;;;;;;4935746;29;20024;-83
2021/06/13 12:35:25;;;;;;;4.43;2.08;;;41.20;42.00;;;;;;4936536;29;20028;-83
2021/06/13 12:37:58;;;;;;;4.28;1.92;;;41.50;42.90;;;;;;4921303;29;20035;-83
2021/06/13 12:40:24;;;;;;;4.22;2.00;;;41.50;41.20;;;;;;4935314;29;20023;-83
2021/06/13 12:42:50;;;;;;;5.63;2.10;;;41.80;41.40;;;;;;4918945;29;20032;-83
2021/06/13 12:45:18;;;;;;;6.20;2.10;;;42.50;41.90;;;;;;4936116;29;20035;-84
2021/06/13 12:47:47;;;;;;;5.07;2.17;;;43.20;41.40;;;;;;4935612;29;20091;-84
2021/06/13 12:50:26;;;;;;;4.72;2.20;;;43.40;40.40;;;;;;4935751;29;20388;-83
2021/06/13 12:52:54;;;;;;;4.75;2.00;;;43.50;39.00;;;;;;4931525;29;20038;-84
2021/06/13 12:55:20;;;;;;;3.78;2.15;;;43.80;38.70;;;;;;4935726;29;20024;-83
2021/06/13 12:57:48;;;;;;;4.63;2.10;;;43.60;37.10;;;;;;4935804;29;20555;-83
2021/06/13 13:00:15;;;;;;;4.93;2.28;;;43.80;37.40;;;;;;4918747;29;20052;-84
2021/06/13 13:02:41;;;;;;;4.30;2.10;;;44.30;36.90;;;;;;4935189;29;20049;-84
2021/06/13 13:05:17;;;;;;;3.35;2.10;;;44.80;36.20;;;;;;4934775;29;20034;-84
2021/06/13 13:07:44;;;;;;;4.72;2.10;;;45.50;35.50;;;;;;4934006;29;20035;-83
2021/06/13 13:10:15;;;;;;;4.55;2.00;;;45.80;34.70;;;;;;4935665;29;20063;-84
2021/06/13 13:12:50;;;;;;;3.72;2.20;;;46.00;33.40;;;;;;4935532;29;20554;-84
2021/06/13 13:15:22;;;;;;;4.30;2.15;;;46.30;33.20;;;;;;4933866;29;20034;-84
2021/06/13 13:17:49;;;;;;;3.63;2.00;;;46.40;31.40;;;;;;4935378;29;20077;-84
2021/06/13 13:20:32;;;;;;;2.83;2.00;;;45.90;30.20;;;;;;4930628;29;20020;-84
2021/06/13 13:23:06;;;;;;;6.93;2.10;;;45.40;30.40;;;;;;4934854;29;20028;-84
2021/06/13 13:25:37;;;;;;;4.40;2.20;;;45.20;30.20;;;;;;4934739;29;20016;-84